sensor_id;sensor_type;location;lat;lon;timestamp;temperature;humidity
43987;DHT22;29650;47.378;8.300;2024-03-02T00:01:19;5.30;99.90
43987;DHT22;29650;47.378;8.300;2024-03-02T00:03:46;5.20;99.90
43987;DHT22;29650;47.378;8.300;2024-03-02T00:06:13;5.20;99.90
43987;DHT22;29650;47.378;8.300;2024-03-02T00:08:40;5.20;99.90
43987;DHT22;29650;47.378;8.300;2024-03-02T00:11:07;5.20;99.90
43987;DHT22;29650;47.378;8.300;2024-03-02T00:13:36;5.30;99.90
43987;DHT22;29650;47.378;8.300;2024-03-02T00:16:05;5.40;99.90
43987;DHT22;29650;47.378;8.300;2024-03-02T00:18:35;5.50;99.90
43987;DHT22;29650;47.378;8.300;2024-03-02T00:21:03;5.50;99.90
43987;DHT22;29650;47.378;8.300;2024-03-02T00:23:35;5.50;99.90
43987;DHT22;29650;47.378;8.300;2024-03-02T00:26:02;5.50;99.90
43987;DHT22;29650;47.378;8.300;2024-03-02T00:28:31;5.40;99.90
43987;DHT22;29650;47.378;8.300;2024-03-02T00:31:02;5.50;99.90
43987;DHT22;29650;47.378;8.300;2024-03-02T00:33:32;5.50;99.90
43987;DHT22;29650;47.378;8.300;2024-03-02T00:36:01;5.50;99.90
43987;DHT22;29650;47.378;8.300;2024-03-02T00:38:30;5.50;99.90
43987;DHT22;29650;47.378;8.300;2024-03-02T00:40:59;5.50;99.90
43987;DHT22;29650;47.378;8.300;2024-03-02T00:43:43;5.50;99.90
43987;DHT22;29650;47.378;8.300;2024-03-02T00:46:11;5.40;99.90
43987;DHT22;29650;47.378;8.300;2024-03-02T00:48:41;5.40;99.90
43987;DHT22;29650;47.378;8.300;2024-03-02T00:51:14;5.30;99.90
43987;DHT22;29650;47.378;8.300;2024-03-02T00:53:41;5.30;99.90
43987;DHT22;29650;47.378;8.300;2024-03-02T00:56:10;5.40;99.90
43987;DHT22;29650;47.378;8.300;2024-03-02T00:58:37;5.30;99.90
43987;DHT22;29650;47.378;8.300;2024-03-02T01:01:04;5.40;99.90
43987;DHT22;29650;47.378;8.300;2024-03-02T01:03:32;5.40;99.90
43987;DHT22;29650;47.378;8.300;2024-03-02T01:05:59;5.30;99.90
43987;DHT22;29650;47.378;8.300;2024-03-02T01:08:27;5.20;99.90
43987;DHT22;29650;47.378;8.300;2024-03-02T01:10:54;5.30;99.90
43987;DHT22;29650;47.378;8.300;2024-03-02T01:13:22;5.20;99.90
43987;DHT22;29650;47.378;8.300;2024-03-02T01:15:49;5.20;99.90
43987;DHT22;29650;47.378;8.300;2024-03-02T01:18:17;5.20;99.90
43987;DHT22;29650;47.378;8.300;2024-03-02T01:20:44;5.20;99.90
43987;DHT22;29650;47.378;8.300;2024-03-02T01:23:11;5.30;99.90
43987;DHT22;29650;47.378;8.300;2024-03-02T01:25:39;5.30;99.90
43987;DHT22;29650;47.378;8.300;2024-03-02T01:28:06;5.40;99.90
43987;DHT22;29650;47.378;8.300;2024-03-02T01:30:33;5.40;99.90
43987;DHT22;29650;47.378;8.300;2024-03-02T01:33:00;5.40;99.90
43987;DHT22;29650;47.378;8.300;2024-03-02T01:35:27;5.40;99.90
43987;DHT22;29650;47.378;8.300;2024-03-02T01:37:54;5.40;99.90
43987;DHT22;29650;47.378;8.300;2024-03-02T01:40:24;5.40;99.90
43987;DHT22;29650;47.378;8.300;2024-03-02T01:42:53;5.30;99.90
43987;DHT22;29650;47.378;8.300;2024-03-02T01:45:21;5.50;99.90
43987;DHT22;29650;47.378;8.300;2024-03-02T01:47:48;5.40;99.90
43987;DHT22;29650;47.378;8.300;2024-03-02T01:50:15;6.00;99.90
43987;DHT22;29650;47.378;8.300;2024-03-02T01:52:42;5.50;99.90
43987;DHT22;29650;47.378;8.300;2024-03-02T01:55:10;5.30;99.90
43987;DHT22;29650;47.378;8.300;2024-03-02T01:57:37;5.30;99.90
43987;DHT22;29650;47.378;8.300;2024-03-02T02:00:07;5.40;99.90
43987;DHT22;29650;47.378;8.300;2024-03-02T02:02:35;5.20;99.90
43987;DHT22;29650;47.378;8.300;2024-03-02T02:05:02;5.20;99.90
43987;DHT22;29650;47.378;8.300;2024-03-02T02:07:30;5.00;99.90
43987;DHT22;29650;47.378;8.300;2024-03-02T02:09:57;5.00;99.90
43987;DHT22;29650;47.378;8.300;2024-03-02T02:12:24;5.00;99.90
43987;DHT22;29650;47.378;8.300;2024-03-02T02:14:51;5.10;99.90
43987;DHT22;29650;47.378;8.300;2024-03-02T02:17:19;4.90;99.90
43987;DHT22;29650;47.378;8.300;2024-03-02T02:19:46;4.80;99.90
43987;DHT22;29650;47.378;8.300;2024-03-02T02:22:14;4.70;99.90
43987;DHT22;29650;47.378;8.300;2024-03-02T02:24:41;4.70;99.90
43987;DHT22;29650;47.378;8.300;2024-03-02T02:27:08;4.90;99.90
43987;DHT22;29650;47.378;8.300;2024-03-02T02:29:36;4.90;99.90
43987;DHT22;29650;47.378;8.300;2024-03-02T02:32:03;4.90;99.90
43987;DHT22;29650;47.378;8.300;2024-03-02T02:34:30;4.70;99.90
43987;DHT22;29650;47.378;8.300;2024-03-02T02:36:57;4.70;99.90
43987;DHT22;29650;47.378;8.300;2024-03-02T02:39:25;4.90;99.90
43987;DHT22;29650;47.378;8.300;2024-03-02T02:41:52;4.90;99.90
43987;DHT22;29650;47.378;8.300;2024-03-02T02:44:19;5.00;99.90
43987;DHT22;29650;47.378;8.300;2024-03-02T02:46:46;5.00;99.90
43987;DHT22;29650;47.378;8.300;2024-03-02T02:49:13;3.40;99.90
43987;DHT22;29650;47.378;8.300;2024-03-02T02:51:40;5.10;99.90
43987;DHT22;29650;47.378;8.300;2024-03-02T02:54:07;5.10;99.90
43987;DHT22;29650;47.378;8.300;2024-03-02T02:56:35;5.10;99.90
43987;DHT22;29650;47.378;8.300;2024-03-02T02:59:02;5.10;99.90
43987;DHT22;29650;47.378;8.300;2024-03-02T03:01:29;5.10;99.90
43987;DHT22;29650;47.378;8.300;2024-03-02T03:03:56;5.10;99.90
43987;DHT22;29650;47.378;8.300;2024-03-02T03:06:23;5.20;99.90
43987;DHT22;29650;47.378;8.300;2024-03-02T03:08:49;5.10;99.90
43987;DHT22;29650;47.378;8.300;2024-03-02T03:11:16;5.10;99.90
43987;DHT22;29650;47.378;8.300;2024-03-02T03:13:45;5.10;99.90
43987;DHT22;29650;47.378;8.300;2024-03-02T03:16:12;5.10;99.90
43987;DHT22;29650;47.378;8.300;2024-03-02T03:18:39;4.90;99.90
43987;DHT22;29650;47.378;8.300;2024-03-02T03:21:06;4.80;99.90
43987;DHT22;29650;47.378;8.300;2024-03-02T03:23:32;4.80;99.90
43987;DHT22;29650;47.378;8.300;2024-03-02T03:25:59;4.90;99.90
43987;DHT22;29650;47.378;8.300;2024-03-02T03:28:26;4.80;99.90
43987;DHT22;29650;47.378;8.300;2024-03-02T03:30:54;4.90;99.90
43987;DHT22;29650;47.378;8.300;2024-03-02T03:33:21;4.80;99.90
43987;DHT22;29650;47.378;8.300;2024-03-02T03:35:48;4.90;99.90
43987;DHT22;29650;47.378;8.300;2024-03-02T03:38:15;4.80;99.90
43987;DHT22;29650;47.378;8.300;2024-03-02T03:40:42;5.00;99.90
43987;DHT22;29650;47.378;8.300;2024-03-02T03:43:10;4.90;99.90
43987;DHT22;29650;47.378;8.300;2024-03-02T03:45:37;4.90;99.90
43987;DHT22;29650;47.378;8.300;2024-03-02T03:48:06;5.10;99.90
43987;DHT22;29650;47.378;8.300;2024-03-02T03:50:33;5.10;99.90
43987;DHT22;29650;47.378;8.300;2024-03-02T03:52:59;5.10;99.90
43987;DHT22;29650;47.378;8.300;2024-03-02T03:55:26;5.10;99.90
43987;DHT22;29650;47.378;8.300;2024-03-02T03:57:53;5.10;99.90
43987;DHT22;29650;47.378;8.300;2024-03-02T04:00:20;4.10;99.90
43987;DHT22;29650;47.378;8.300;2024-03-02T04:02:47;5.00;99.90
43987;DHT22;29650;47.378;8.300;2024-03-02T04:05:15;5.00;99.90
43987;DHT22;29650;47.378;8.300;2024-03-02T04:07:42;5.00;99.90
43987;DHT22;29650;47.378;8.300;2024-03-02T04:10:10;4.90;99.90
43987;DHT22;29650;47.378;8.300;2024-03-02T04:12:38;4.90;99.90
43987;DHT22;29650;47.378;8.300;2024-03-02T04:15:06;5.00;99.90
43987;DHT22;29650;47.378;8.300;2024-03-02T04:17:33;4.90;99.90
43987;DHT22;29650;47.378;8.300;2024-03-02T04:20:01;4.90;99.90
43987;DHT22;29650;47.378;8.300;2024-03-02T04:22:33;4.90;99.90
43987;DHT22;29650;47.378;8.300;2024-03-02T04:25:00;4.90;99.90
43987;DHT22;29650;47.378;8.300;2024-03-02T04:27:27;4.70;99.90
43987;DHT22;29650;47.378;8.300;2024-03-02T04:29:54;4.80;99.90
43987;DHT22;29650;47.378;8.300;2024-03-02T04:32:21;4.70;99.90
43987;DHT22;29650;47.378;8.300;2024-03-02T04:34:48;4.70;99.90
43987;DHT22;29650;47.378;8.300;2024-03-02T04:37:14;4.70;99.90
43987;DHT22;29650;47.378;8.300;2024-03-02T04:39:43;4.70;99.90
43987;DHT22;29650;47.378;8.300;2024-03-02T04:42:10;4.70;99.90
43987;DHT22;29650;47.378;8.300;2024-03-02T04:44:37;4.80;99.90
43987;DHT22;29650;47.378;8.300;2024-03-02T04:47:04;4.60;99.90
43987;DHT22;29650;47.378;8.300;2024-03-02T04:49:31;4.60;99.90
43987;DHT22;29650;47.378;8.300;2024-03-02T04:51:58;4.50;99.90
43987;DHT22;29650;47.378;8.300;2024-03-02T04:54:25;4.60;99.90
43987;DHT22;29650;47.378;8.300;2024-03-02T04:56:53;4.40;99.90
43987;DHT22;29650;47.378;8.300;2024-03-02T04:59:20;4.40;99.90
43987;DHT22;29650;47.378;8.300;2024-03-02T05:01:47;4.40;99.90
43987;DHT22;29650;47.378;8.300;2024-03-02T05:04:14;4.40;99.90
43987;DHT22;29650;47.378;8.300;2024-03-02T05:06:41;4.50;99.90
43987;DHT22;29650;47.378;8.300;2024-03-02T05:09:08;4.50;99.90
43987;DHT22;29650;47.378;8.300;2024-03-02T05:11:35;4.50;99.90
43987;DHT22;29650;47.378;8.300;2024-03-02T05:14:21;4.50;99.90
43987;DHT22;29650;47.378;8.300;2024-03-02T05:16:48;4.70;99.90
43987;DHT22;29650;47.378;8.300;2024-03-02T05:19:15;4.60;99.90
43987;DHT22;29650;47.378;8.300;2024-03-02T05:21:42;4.50;99.90
43987;DHT22;29650;47.378;8.300;2024-03-02T05:24:09;4.50;99.90
43987;DHT22;29650;47.378;8.300;2024-03-02T05:26:36;4.50;99.90
43987;DHT22;29650;47.378;8.300;2024-03-02T05:29:03;4.50;99.90
43987;DHT22;29650;47.378;8.300;2024-03-02T05:31:31;4.60;99.90
43987;DHT22;29650;47.378;8.300;2024-03-02T05:33:58;4.60;99.90
43987;DHT22;29650;47.378;8.300;2024-03-02T05:36:25;4.60;99.90
43987;DHT22;29650;47.378;8.300;2024-03-02T05:38:51;4.60;99.90
43987;DHT22;29650;47.378;8.300;2024-03-02T05:41:18;4.20;99.90
43987;DHT22;29650;47.378;8.300;2024-03-02T05:43:46;4.20;99.90
43987;DHT22;29650;47.378;8.300;2024-03-02T05:46:13;4.20;99.90
43987;DHT22;29650;47.378;8.300;2024-03-02T05:48:41;3.80;99.90
43987;DHT22;29650;47.378;8.300;2024-03-02T05:51:08;3.70;99.90
43987;DHT22;29650;47.378;8.300;2024-03-02T05:53:35;3.60;99.90
43987;DHT22;29650;47.378;8.300;2024-03-02T05:56:04;3.80;99.90
43987;DHT22;29650;47.378;8.300;2024-03-02T05:58:31;3.80;99.90
43987;DHT22;29650;47.378;8.300;2024-03-02T06:01:12;3.90;99.90
43987;DHT22;29650;47.378;8.300;2024-03-02T06:03:38;3.80;99.90
43987;DHT22;29650;47.378;8.300;2024-03-02T06:06:07;4.00;99.90
43987;DHT22;29650;47.378;8.300;2024-03-02T06:08:33;4.00;99.90
43987;DHT22;29650;47.378;8.300;2024-03-02T06:11:00;4.00;99.90
43987;DHT22;29650;47.378;8.300;2024-03-02T06:13:27;4.20;99.90
43987;DHT22;29650;47.378;8.300;2024-03-02T06:15:54;3.80;99.90
43987;DHT22;29650;47.378;8.300;2024-03-02T06:18:21;3.80;99.90
43987;DHT22;29650;47.378;8.300;2024-03-02T06:20:48;3.70;99.90
43987;DHT22;29650;47.378;8.300;2024-03-02T06:23:17;4.00;99.90
43987;DHT22;29650;47.378;8.300;2024-03-02T06:25:44;3.80;99.90
43987;DHT22;29650;47.378;8.300;2024-03-02T06:28:11;3.80;99.90
43987;DHT22;29650;47.378;8.300;2024-03-02T06:30:40;3.90;99.90
43987;DHT22;29650;47.378;8.300;2024-03-02T06:33:07;3.80;99.90
43987;DHT22;29650;47.378;8.300;2024-03-02T06:35:34;3.80;99.90
43987;DHT22;29650;47.378;8.300;2024-03-02T06:38:02;3.80;99.90
43987;DHT22;29650;47.378;8.300;2024-03-02T06:40:30;3.90;99.90
43987;DHT22;29650;47.378;8.300;2024-03-02T06:42:57;3.90;99.90
43987;DHT22;29650;47.378;8.300;2024-03-02T06:45:24;4.20;99.90
43987;DHT22;29650;47.378;8.300;2024-03-02T06:47:50;4.10;99.90
43987;DHT22;29650;47.378;8.300;2024-03-02T06:50:17;4.00;99.90
43987;DHT22;29650;47.378;8.300;2024-03-02T06:52:44;4.20;99.90
43987;DHT22;29650;47.378;8.300;2024-03-02T06:55:11;4.10;99.90
43987;DHT22;29650;47.378;8.300;2024-03-02T06:57:39;4.10;99.90
43987;DHT22;29650;47.378;8.300;2024-03-02T07:00:07;4.00;99.90
43987;DHT22;29650;47.378;8.300;2024-03-02T07:02:35;4.00;99.90
43987;DHT22;29650;47.378;8.300;2024-03-02T07:05:02;4.20;99.90
43987;DHT22;29650;47.378;8.300;2024-03-02T07:07:29;4.30;99.90
43987;DHT22;29650;47.378;8.300;2024-03-02T07:09:57;4.10;99.90
43987;DHT22;29650;47.378;8.300;2024-03-02T07:12:24;4.20;99.90
43987;DHT22;29650;47.378;8.300;2024-03-02T07:14:52;4.30;99.90
43987;DHT22;29650;47.378;8.300;2024-03-02T07:17:37;4.30;99.90
43987;DHT22;29650;47.378;8.300;2024-03-02T07:20:04;4.40;99.90
43987;DHT22;29650;47.378;8.300;2024-03-02T07:22:32;4.40;99.90
43987;DHT22;29650;47.378;8.300;2024-03-02T07:24:59;4.00;99.90
43987;DHT22;29650;47.378;8.300;2024-03-02T07:27:26;4.10;99.90
43987;DHT22;29650;47.378;8.300;2024-03-02T07:29:55;4.00;99.90
43987;DHT22;29650;47.378;8.300;2024-03-02T07:32:21;3.90;99.90
43987;DHT22;29650;47.378;8.300;2024-03-02T07:34:48;4.10;99.90
43987;DHT22;29650;47.378;8.300;2024-03-02T07:37:16;4.20;99.90
43987;DHT22;29650;47.378;8.300;2024-03-02T07:39:44;4.40;99.90
43987;DHT22;29650;47.378;8.300;2024-03-02T07:42:12;4.60;99.90
43987;DHT22;29650;47.378;8.300;2024-03-02T07:44:38;4.80;99.90
43987;DHT22;29650;47.378;8.300;2024-03-02T07:47:07;4.80;99.90
43987;DHT22;29650;47.378;8.300;2024-03-02T07:49:34;4.70;99.90
43987;DHT22;29650;47.378;8.300;2024-03-02T07:52:01;4.80;99.90
43987;DHT22;29650;47.378;8.300;2024-03-02T07:54:28;4.70;99.90
43987;DHT22;29650;47.378;8.300;2024-03-02T07:56:55;4.60;99.90
43987;DHT22;29650;47.378;8.300;2024-03-02T07:59:22;4.70;99.90
43987;DHT22;29650;47.378;8.300;2024-03-02T08:01:49;4.70;99.90
43987;DHT22;29650;47.378;8.300;2024-03-02T08:04:17;4.80;99.90
43987;DHT22;29650;47.378;8.300;2024-03-02T08:06:45;4.90;99.90
43987;DHT22;29650;47.378;8.300;2024-03-02T08:09:12;4.90;99.90
43987;DHT22;29650;47.378;8.300;2024-03-02T08:11:39;4.90;99.90
43987;DHT22;29650;47.378;8.300;2024-03-02T08:14:06;5.00;99.90
43987;DHT22;29650;47.378;8.300;2024-03-02T08:16:33;5.20;99.90
43987;DHT22;29650;47.378;8.300;2024-03-02T08:19:00;5.30;99.90
43987;DHT22;29650;47.378;8.300;2024-03-02T08:21:29;5.20;99.90
43987;DHT22;29650;47.378;8.300;2024-03-02T08:23:57;5.20;99.90
43987;DHT22;29650;47.378;8.300;2024-03-02T08:26:24;5.20;99.90
43987;DHT22;29650;47.378;8.300;2024-03-02T08:28:54;5.10;99.90
43987;DHT22;29650;47.378;8.300;2024-03-02T08:31:21;5.20;99.90
43987;DHT22;29650;47.378;8.300;2024-03-02T08:33:48;5.10;99.90
43987;DHT22;29650;47.378;8.300;2024-03-02T08:36:15;4.90;99.90
43987;DHT22;29650;47.378;8.300;2024-03-02T08:38:43;4.80;99.90
43987;DHT22;29650;47.378;8.300;2024-03-02T08:41:10;4.70;99.90
43987;DHT22;29650;47.378;8.300;2024-03-02T08:43:40;4.90;99.90
43987;DHT22;29650;47.378;8.300;2024-03-02T08:46:08;4.90;99.90
43987;DHT22;29650;47.378;8.300;2024-03-02T08:48:35;4.80;99.90
43987;DHT22;29650;47.378;8.300;2024-03-02T08:51:02;4.80;99.90
43987;DHT22;29650;47.378;8.300;2024-03-02T08:53:31;4.80;99.90
43987;DHT22;29650;47.378;8.300;2024-03-02T08:56:00;5.00;99.90
43987;DHT22;29650;47.378;8.300;2024-03-02T08:58:26;4.90;99.90
43987;DHT22;29650;47.378;8.300;2024-03-02T09:00:53;5.10;99.90
43987;DHT22;29650;47.378;8.300;2024-03-02T09:03:20;5.30;99.90
43987;DHT22;29650;47.378;8.300;2024-03-02T09:05:47;5.20;99.90
43987;DHT22;29650;47.378;8.300;2024-03-02T09:08:14;5.20;99.90
43987;DHT22;29650;47.378;8.300;2024-03-02T09:10:41;5.20;99.90
43987;DHT22;29650;47.378;8.300;2024-03-02T09:13:10;5.20;99.90
43987;DHT22;29650;47.378;8.300;2024-03-02T09:15:37;5.20;99.90
43987;DHT22;29650;47.378;8.300;2024-03-02T09:18:05;5.30;99.90
43987;DHT22;29650;47.378;8.300;2024-03-02T09:20:32;5.40;99.90
43987;DHT22;29650;47.378;8.300;2024-03-02T09:22:59;5.50;99.90
43987;DHT22;29650;47.378;8.300;2024-03-02T09:25:26;5.40;99.90
43987;DHT22;29650;47.378;8.300;2024-03-02T09:27:53;5.40;99.90
43987;DHT22;29650;47.378;8.300;2024-03-02T09:30:21;5.40;99.90
43987;DHT22;29650;47.378;8.300;2024-03-02T09:32:48;5.50;99.90
43987;DHT22;29650;47.378;8.300;2024-03-02T09:35:15;5.40;99.90
43987;DHT22;29650;47.378;8.300;2024-03-02T09:37:42;5.30;99.90
43987;DHT22;29650;47.378;8.300;2024-03-02T09:40:10;5.30;99.90
43987;DHT22;29650;47.378;8.300;2024-03-02T09:42:37;5.50;99.90
43987;DHT22;29650;47.378;8.300;2024-03-02T09:45:06;5.40;99.90
43987;DHT22;29650;47.378;8.300;2024-03-02T09:47:35;5.30;99.90
43987;DHT22;29650;47.378;8.300;2024-03-02T09:50:02;5.20;99.90
43987;DHT22;29650;47.378;8.300;2024-03-02T09:52:30;5.30;99.90
43987;DHT22;29650;47.378;8.300;2024-03-02T09:54:57;5.40;99.90
43987;DHT22;29650;47.378;8.300;2024-03-02T09:57:24;5.60;99.90
43987;DHT22;29650;47.378;8.300;2024-03-02T09:59:51;5.80;99.90
43987;DHT22;29650;47.378;8.300;2024-03-02T10:02:18;5.70;99.90
43987;DHT22;29650;47.378;8.300;2024-03-02T10:04:49;5.80;99.90
43987;DHT22;29650;47.378;8.300;2024-03-02T10:07:17;6.00;99.90
43987;DHT22;29650;47.378;8.300;2024-03-02T10:09:45;6.00;99.90
43987;DHT22;29650;47.378;8.300;2024-03-02T10:12:13;5.80;99.90
43987;DHT22;29650;47.378;8.300;2024-03-02T10:14:41;6.00;99.90
43987;DHT22;29650;47.378;8.300;2024-03-02T10:17:09;6.20;99.90
43987;DHT22;29650;47.378;8.300;2024-03-02T10:19:37;6.30;99.90
43987;DHT22;29650;47.378;8.300;2024-03-02T10:22:07;6.10;99.90
43987;DHT22;29650;47.378;8.300;2024-03-02T10:24:39;6.00;99.90
43987;DHT22;29650;47.378;8.300;2024-03-02T10:27:10;6.00;99.90
43987;DHT22;29650;47.378;8.300;2024-03-02T10:29:38;6.00;99.90
43987;DHT22;29650;47.378;8.300;2024-03-02T10:32:09;6.20;99.90
43987;DHT22;29650;47.378;8.300;2024-03-02T10:34:37;6.50;99.90
43987;DHT22;29650;47.378;8.300;2024-03-02T10:37:04;6.20;99.90
43987;DHT22;29650;47.378;8.300;2024-03-02T10:39:34;6.30;99.90
43987;DHT22;29650;47.378;8.300;2024-03-02T10:42:03;6.50;99.90
43987;DHT22;29650;47.378;8.300;2024-03-02T10:44:30;6.50;99.90
43987;DHT22;29650;47.378;8.300;2024-03-02T10:46:57;6.80;99.90
43987;DHT22;29650;47.378;8.300;2024-03-02T10:49:24;6.90;99.90
43987;DHT22;29650;47.378;8.300;2024-03-02T10:51:53;6.90;99.90
43987;DHT22;29650;47.378;8.300;2024-03-02T10:54:19;7.00;99.90
43987;DHT22;29650;47.378;8.300;2024-03-02T10:56:53;7.20;99.90
43987;DHT22;29650;47.378;8.300;2024-03-02T10:59:25;7.30;99.90
43987;DHT22;29650;47.378;8.300;2024-03-02T11:01:56;7.40;99.90
43987;DHT22;29650;47.378;8.300;2024-03-02T11:04:24;8.00;99.90
43987;DHT22;29650;47.378;8.300;2024-03-02T11:06:58;8.20;99.90
43987;DHT22;29650;47.378;8.300;2024-03-02T11:09:27;8.40;99.90
43987;DHT22;29650;47.378;8.300;2024-03-02T11:12:02;8.50;99.90
43987;DHT22;29650;47.378;8.300;2024-03-02T11:14:31;8.40;99.90
43987;DHT22;29650;47.378;8.300;2024-03-02T11:16:59;8.20;99.90
43987;DHT22;29650;47.378;8.300;2024-03-02T11:19:27;8.40;99.90
43987;DHT22;29650;47.378;8.300;2024-03-02T11:21:54;8.60;99.90
43987;DHT22;29650;47.378;8.300;2024-03-02T11:24:30;8.60;99.90
43987;DHT22;29650;47.378;8.300;2024-03-02T11:27:01;8.80;99.90
43987;DHT22;29650;47.378;8.300;2024-03-02T11:29:44;8.80;99.90
43987;DHT22;29650;47.378;8.300;2024-03-02T11:32:15;9.00;99.90
43987;DHT22;29650;47.378;8.300;2024-03-02T11:34:45;9.10;99.90
43987;DHT22;29650;47.378;8.300;2024-03-02T11:37:13;9.00;99.90
43987;DHT22;29650;47.378;8.300;2024-03-02T11:39:42;9.30;99.90
43987;DHT22;29650;47.378;8.300;2024-03-02T11:42:11;9.30;99.90
43987;DHT22;29650;47.378;8.300;2024-03-02T11:44:41;9.20;99.90
43987;DHT22;29650;47.378;8.300;2024-03-02T11:47:10;9.20;99.90
43987;DHT22;29650;47.378;8.300;2024-03-02T11:49:40;9.40;99.90
43987;DHT22;29650;47.378;8.300;2024-03-02T11:52:08;9.50;99.90
43987;DHT22;29650;47.378;8.300;2024-03-02T11:54:37;9.60;99.90
43987;DHT22;29650;47.378;8.300;2024-03-02T11:57:07;9.70;99.90
43987;DHT22;29650;47.378;8.300;2024-03-02T11:59:35;9.70;99.90
43987;DHT22;29650;47.378;8.300;2024-03-02T12:02:03;9.80;99.40
43987;DHT22;29650;47.378;8.300;2024-03-02T12:04:30;9.70;94.70
43987;DHT22;29650;47.378;8.300;2024-03-02T12:06:59;9.80;94.20
43987;DHT22;29650;47.378;8.300;2024-03-02T12:09:29;9.90;93.00
43987;DHT22;29650;47.378;8.300;2024-03-02T12:12:03;10.00;93.00
43987;DHT22;29650;47.378;8.300;2024-03-02T12:14:31;10.10;92.00
43987;DHT22;29650;47.378;8.300;2024-03-02T12:16:59;10.30;91.70
43987;DHT22;29650;47.378;8.300;2024-03-02T12:19:26;10.40;84.90
43987;DHT22;29650;47.378;8.300;2024-03-02T12:21:55;11.10;88.20
43987;DHT22;29650;47.378;8.300;2024-03-02T12:24:21;11.60;57.50
43987;DHT22;29650;47.378;8.300;2024-03-02T12:26:49;11.00;54.60
43987;DHT22;29650;47.378;8.300;2024-03-02T12:29:18;11.00;59.70
43987;DHT22;29650;47.378;8.300;2024-03-02T12:31:48;11.00;59.60
43987;DHT22;29650;47.378;8.300;2024-03-02T12:34:17;11.00;63.50
43987;DHT22;29650;47.378;8.300;2024-03-02T12:36:46;10.90;60.10
43987;DHT22;29650;47.378;8.300;2024-03-02T12:39:15;11.00;59.50
43987;DHT22;29650;47.378;8.300;2024-03-02T12:41:43;11.10;56.80
43987;DHT22;29650;47.378;8.300;2024-03-02T12:44:10;11.10;54.10
43987;DHT22;29650;47.378;8.300;2024-03-02T12:46:37;11.20;41.00
43987;DHT22;29650;47.378;8.300;2024-03-02T12:49:08;11.00;54.40
43987;DHT22;29650;47.378;8.300;2024-03-02T12:51:41;11.20;55.70
43987;DHT22;29650;47.378;8.300;2024-03-02T12:54:09;11.30;54.10
43987;DHT22;29650;47.378;8.300;2024-03-02T12:56:36;11.40;54.30
43987;DHT22;29650;47.378;8.300;2024-03-02T12:59:04;11.30;48.30
43987;DHT22;29650;47.378;8.300;2024-03-02T13:01:31;11.30;47.20
43987;DHT22;29650;47.378;8.300;2024-03-02T13:03:59;11.20;41.90
43987;DHT22;29650;47.378;8.300;2024-03-02T13:06:26;11.30;40.50
43987;DHT22;29650;47.378;8.300;2024-03-02T13:08:56;11.20;39.10
43987;DHT22;29650;47.378;8.300;2024-03-02T13:11:23;11.30;34.50
43987;DHT22;29650;47.378;8.300;2024-03-02T13:13:50;11.10;37.90
43987;DHT22;29650;47.378;8.300;2024-03-02T13:16:18;11.10;37.40
43987;DHT22;29650;47.378;8.300;2024-03-02T13:18:45;11.20;38.80
43987;DHT22;29650;47.378;8.300;2024-03-02T13:21:13;11.20;37.40
43987;DHT22;29650;47.378;8.300;2024-03-02T13:23:40;11.20;37.10
43987;DHT22;29650;47.378;8.300;2024-03-02T13:26:08;11.20;33.80
43987;DHT22;29650;47.378;8.300;2024-03-02T13:28:38;11.50;38.80
43987;DHT22;29650;47.378;8.300;2024-03-02T13:31:05;11.60;37.20
43987;DHT22;29650;47.378;8.300;2024-03-02T13:33:32;11.70;32.60
43987;DHT22;29650;47.378;8.300;2024-03-02T13:35:59;11.80;30.00
43987;DHT22;29650;47.378;8.300;2024-03-02T13:38:27;11.60;31.60
43987;DHT22;29650;47.378;8.300;2024-03-02T13:40:54;11.60;30.90
43987;DHT22;29650;47.378;8.300;2024-03-02T13:43:22;11.70;32.50
43987;DHT22;29650;47.378;8.300;2024-03-02T13:45:50;11.50;31.50
43987;DHT22;29650;47.378;8.300;2024-03-02T13:48:19;11.60;33.50
43987;DHT22;29650;47.378;8.300;2024-03-02T13:50:46;11.70;35.00
43987;DHT22;29650;47.378;8.300;2024-03-02T13:53:13;11.60;34.10
43987;DHT22;29650;47.378;8.300;2024-03-02T13:55:40;11.50;32.30
43987;DHT22;29650;47.378;8.300;2024-03-02T13:58:08;11.50;36.20
43987;DHT22;29650;47.378;8.300;2024-03-02T14:00:36;11.50;33.80
43987;DHT22;29650;47.378;8.300;2024-03-02T14:03:05;11.50;35.30
43987;DHT22;29650;47.378;8.300;2024-03-02T14:05:32;11.50;38.40
43987;DHT22;29650;47.378;8.300;2024-03-02T14:07:59;11.50;39.00
43987;DHT22;29650;47.378;8.300;2024-03-02T14:10:27;11.40;41.80
43987;DHT22;29650;47.378;8.300;2024-03-02T14:12:54;11.50;42.00
43987;DHT22;29650;47.378;8.300;2024-03-02T14:15:22;11.50;43.00
43987;DHT22;29650;47.378;8.300;2024-03-02T14:17:50;11.40;40.50
43987;DHT22;29650;47.378;8.300;2024-03-02T14:20:17;11.40;41.30
43987;DHT22;29650;47.378;8.300;2024-03-02T14:22:48;11.30;41.00
43987;DHT22;29650;47.378;8.300;2024-03-02T14:25:15;11.30;42.90
43987;DHT22;29650;47.378;8.300;2024-03-02T14:27:42;11.30;47.40
43987;DHT22;29650;47.378;8.300;2024-03-02T14:30:09;11.30;47.00
43987;DHT22;29650;47.378;8.300;2024-03-02T14:32:36;11.20;46.60
43987;DHT22;29650;47.378;8.300;2024-03-02T14:35:06;11.20;47.20
43987;DHT22;29650;47.378;8.300;2024-03-02T14:37:35;11.20;38.90
43987;DHT22;29650;47.378;8.300;2024-03-02T14:40:02;11.20;42.60
43987;DHT22;29650;47.378;8.300;2024-03-02T14:42:32;11.10;44.40
43987;DHT22;29650;47.378;8.300;2024-03-02T14:44:59;11.10;46.60
43987;DHT22;29650;47.378;8.300;2024-03-02T14:47:26;11.10;44.20
43987;DHT22;29650;47.378;8.300;2024-03-02T14:49:53;11.10;39.50
43987;DHT22;29650;47.378;8.300;2024-03-02T14:52:21;11.10;37.30
43987;DHT22;29650;47.378;8.300;2024-03-02T14:54:48;11.10;38.20
43987;DHT22;29650;47.378;8.300;2024-03-02T14:57:15;11.00;37.20
43987;DHT22;29650;47.378;8.300;2024-03-02T14:59:42;11.10;36.70
43987;DHT22;29650;47.378;8.300;2024-03-02T15:02:09;11.10;40.40
43987;DHT22;29650;47.378;8.300;2024-03-02T15:04:36;11.20;37.10
43987;DHT22;29650;47.378;8.300;2024-03-02T15:07:03;11.20;37.40
43987;DHT22;29650;47.378;8.300;2024-03-02T15:09:31;11.10;38.00
43987;DHT22;29650;47.378;8.300;2024-03-02T15:12:01;11.10;35.90
43987;DHT22;29650;47.378;8.300;2024-03-02T15:14:28;11.10;36.80
43987;DHT22;29650;47.378;8.300;2024-03-02T15:16:56;11.10;33.70
43987;DHT22;29650;47.378;8.300;2024-03-02T15:19:23;11.20;34.00
43987;DHT22;29650;47.378;8.300;2024-03-02T15:21:50;11.20;32.20
43987;DHT22;29650;47.378;8.300;2024-03-02T15:24:17;11.30;31.50
43987;DHT22;29650;47.378;8.300;2024-03-02T15:26:45;11.40;36.30
43987;DHT22;29650;47.378;8.300;2024-03-02T15:29:12;11.40;35.50
43987;DHT22;29650;47.378;8.300;2024-03-02T15:31:39;11.40;36.70
43987;DHT22;29650;47.378;8.300;2024-03-02T15:34:06;11.40;40.00
43987;DHT22;29650;47.378;8.300;2024-03-02T15:36:33;11.40;40.60
43987;DHT22;29650;47.378;8.300;2024-03-02T15:39:01;11.50;39.00
43987;DHT22;29650;47.378;8.300;2024-03-02T15:41:34;11.60;38.90
43987;DHT22;29650;47.378;8.300;2024-03-02T15:44:02;11.60;38.50
43987;DHT22;29650;47.378;8.300;2024-03-02T15:46:29;11.50;41.50